createdAt,value
2023-11-25T00:01:47.637Z,94227.81
2023-11-25T00:04:14.143Z,94218.16
2023-11-25T00:06:41.158Z,94210.44
2023-11-25T00:09:07.667Z,94206.69
2023-11-25T00:11:34.125Z,94209.66
2023-11-25T00:14:00.581Z,94210.19
2023-11-25T00:16:26.934Z,94205.94
2023-11-25T00:18:53.406Z,94191.25
2023-11-25T00:21:19.766Z,94216.09
2023-11-25T00:23:47.917Z,94200.88
2023-11-25T00:26:14.307Z,94200.06
2023-11-25T00:28:40.692Z,94196.63
2023-11-25T00:31:07.515Z,94200.63
2023-11-25T00:33:35.700Z,94196.91
2023-11-25T00:36:03.575Z,94190.75
2023-11-25T00:38:29.946Z,94199.84
2023-11-25T00:40:58.080Z,94199.84
2023-11-25T00:43:24.470Z,94203.56
2023-11-25T00:45:51.049Z,94200.31
2023-11-25T00:48:17.492Z,94200.34
2023-11-25T00:50:43.639Z,94197.69
2023-11-25T00:53:10.016Z,94197.16
2023-11-25T00:55:36.448Z,94197.44
2023-11-25T00:58:04.382Z,94201.44
2023-11-25T01:00:31.321Z,94201.44
2023-11-25T01:02:59.701Z,94198.00
2023-11-25T01:05:26.144Z,94204.41
2023-11-25T01:07:52.523Z,94219.38
2023-11-25T01:10:19.027Z,94221.44
2023-11-25T01:12:46.086Z,94218.72
2023-11-25T01:15:14.811Z,94215.19
2023-11-25T01:17:41.350Z,94216.22
2023-11-25T01:20:10.273Z,94214.88
2023-11-25T01:22:36.621Z,94225.28
2023-11-25T01:25:07.152Z,94211.44
2023-11-25T01:27:35.881Z,94212.81
2023-11-25T01:30:04.729Z,94225.63
2023-11-25T01:32:31.844Z,94232.06
2023-11-25T01:34:58.257Z,94230.75
2023-11-25T01:37:27.020Z,94244.34
2023-11-25T01:39:53.650Z,94234.63
2023-11-25T01:42:20.054Z,94245.19
2023-11-25T01:44:47.192Z,94268.06
2023-11-25T01:47:14.479Z,94280.28
2023-11-25T01:49:42.715Z,94261.25
2023-11-25T01:52:09.754Z,94289.53
2023-11-25T01:54:36.528Z,94282.78
2023-11-25T01:57:03.574Z,94282.59
2023-11-25T01:59:30.635Z,94283.91
2023-11-25T02:01:57.981Z,94305.03
2023-11-25T02:04:24.670Z,94318.63
2023-11-25T02:06:51.711Z,94323.75
2023-11-25T02:09:18.399Z,94329.03
2023-11-25T02:11:55.905Z,94323.44
2023-11-25T02:14:22.670Z,94339.72
2023-11-25T02:16:49.349Z,94334.63
2023-11-25T02:19:15.820Z,94331.97
2023-11-25T02:21:43.157Z,94334.59
2023-11-25T02:24:10.385Z,94326.84
2023-11-25T02:26:36.985Z,94324.25
2023-11-25T02:29:04.188Z,94336.47
2023-11-25T02:31:30.587Z,94353.28
2023-11-25T02:33:56.975Z,94345.72
2023-11-25T02:36:23.994Z,94364.16
2023-11-25T02:38:50.600Z,94351.81
2023-11-25T02:41:18.707Z,94356.56
2023-11-25T02:43:46.737Z,94348.25
2023-11-25T02:46:13.136Z,94356.16
2023-11-25T02:48:39.708Z,94357.69
2023-11-25T02:51:07.955Z,94365.31
2023-11-25T02:53:34.320Z,94362.47
2023-11-25T02:56:00.724Z,94355.19
2023-11-25T02:58:27.826Z,94372.97
2023-11-25T03:01:01.786Z,94385.63
2023-11-25T03:03:28.312Z,94381.81
2023-11-25T03:05:54.821Z,94394.59
2023-11-25T03:08:22.772Z,94401.94
2023-11-25T03:10:51.319Z,94412.28
2023-11-25T03:13:18.203Z,94400.91
2023-11-25T03:15:45.198Z,94406.72
2023-11-25T03:18:11.531Z,94415.28
2023-11-25T03:20:39.479Z,94429.25
2023-11-25T03:23:07.184Z,94440.16
2023-11-25T03:25:34.202Z,94457.75
2023-11-25T03:28:04.964Z,94458.94
2023-11-25T03:30:31.358Z,94462.38
2023-11-25T03:32:58.963Z,94467.25
2023-11-25T03:35:25.320Z,94483.25
2023-11-25T03:37:51.812Z,94477.94
2023-11-25T03:40:18.218Z,94490.44
2023-11-25T03:42:44.641Z,94488.09
2023-11-25T03:45:12.957Z,94493.53
2023-11-25T03:47:40.689Z,94513.00
2023-11-25T03:50:08.420Z,94511.38
2023-11-25T03:52:34.829Z,94524.94
2023-11-25T03:55:03.344Z,94532.13
2023-11-25T03:57:29.829Z,94536.41
2023-11-25T03:59:57.531Z,94533.03
2023-11-25T04:02:23.965Z,94546.38
2023-11-25T04:04:50.584Z,94539.59
2023-11-25T04:07:18.915Z,94557.19
2023-11-25T04:09:45.324Z,94561.88
2023-11-25T04:12:11.695Z,94563.81
2023-11-25T04:14:38.076Z,94567.94
2023-11-25T04:17:05.170Z,94563.31
2023-11-25T04:19:32.031Z,94582.00
2023-11-25T04:21:59.329Z,94578.03
2023-11-25T04:24:27.556Z,94585.00
2023-11-25T04:26:53.923Z,94589.19
2023-11-25T04:29:21.132Z,94598.16
2023-11-25T04:31:50.138Z,94600.59
2023-11-25T04:34:16.949Z,94618.06
2023-11-25T04:36:43.871Z,94622.25
2023-11-25T04:39:11.127Z,94624.91
2023-11-25T04:41:41.386Z,94624.81
2023-11-25T04:44:07.782Z,94631.47
2023-11-25T04:46:34.203Z,94634.28
2023-11-25T04:49:00.643Z,94636.16
2023-11-25T04:51:28.919Z,94653.53
2023-11-25T04:53:55.241Z,94649.97
2023-11-25T04:56:22.475Z,94653.06
2023-11-25T04:58:49.509Z,94660.97
2023-11-25T05:01:15.998Z,94659.59
2023-11-25T05:03:42.436Z,94659.50
2023-11-25T05:06:10.340Z,94669.28
2023-11-25T05:08:36.856Z,94668.88
2023-11-25T05:11:03.493Z,94668.97
2023-11-25T05:13:30.301Z,94674.63
2023-11-25T05:15:58.176Z,94676.66
2023-11-25T05:18:24.632Z,94686.13
2023-11-25T05:20:51.691Z,94694.13
2023-11-25T05:23:18.047Z,94698.16
2023-11-25T05:25:44.463Z,94710.03
2023-11-25T05:28:10.993Z,94718.59
2023-11-25T05:30:37.413Z,94725.00
2023-11-25T05:33:04.498Z,94725.06
2023-11-25T05:35:31.622Z,94724.50
2023-11-25T05:37:58.661Z,94717.88
2023-11-25T05:40:25.072Z,94724.75
2023-11-25T05:42:53.690Z,94728.47
2023-11-25T05:45:20.988Z,94725.47
2023-11-25T05:47:47.755Z,94728.13
2023-11-25T05:50:20.384Z,94724.41
2023-11-25T05:52:46.928Z,94728.53
2023-11-25T05:55:13.438Z,94735.06
2023-11-25T05:57:40.860Z,94731.69
2023-11-25T06:00:12.460Z,94729.97
2023-11-25T06:02:39.239Z,94733.28
2023-11-25T06:05:07.068Z,94729.44
2023-11-25T06:07:34.133Z,94737.69
2023-11-25T06:10:00.616Z,94733.88
2023-11-25T06:12:27.435Z,94735.97
2023-11-25T06:14:56.092Z,94727.84
2023-11-25T06:17:23.928Z,94725.69
2023-11-25T06:19:50.473Z,94729.97
2023-11-25T06:22:16.842Z,94730.25
2023-11-25T06:24:45.013Z,94738.00
2023-11-25T06:27:11.442Z,94733.97
2023-11-25T06:29:39.887Z,94738.16
2023-11-25T06:32:06.587Z,94746.81
2023-11-25T06:34:33.616Z,94744.88
2023-11-25T06:36:59.989Z,94740.94
2023-11-25T06:39:30.614Z,94746.84
2023-11-25T06:41:57.680Z,94756.25
2023-11-25T06:44:24.059Z,94757.25
2023-11-25T06:46:50.562Z,94758.75
2023-11-25T06:49:16.993Z,94762.78
2023-11-25T06:51:43.457Z,94756.09
2023-11-25T06:54:10.205Z,94770.66
2023-11-25T06:56:36.763Z,94769.97
2023-11-25T06:59:04.057Z,94768.44
2023-11-25T07:01:31.061Z,94767.94
2023-11-25T07:03:57.417Z,94766.56
2023-11-25T07:06:24.047Z,94764.25
2023-11-25T07:08:50.760Z,94763.19
2023-11-25T07:11:18.600Z,94762.91
2023-11-25T07:13:45.157Z,94766.03
2023-11-25T07:16:12.608Z,94764.72
2023-11-25T07:18:43.020Z,94757.84
2023-11-25T07:21:11.928Z,94762.53
2023-11-25T07:23:38.512Z,94754.41
2023-11-25T07:26:06.004Z,94758.44
2023-11-25T07:28:33.160Z,94768.22
2023-11-25T07:30:59.587Z,94767.31
2023-11-25T07:33:26.598Z,94753.63
2023-11-25T07:35:52.956Z,94748.81
2023-11-25T07:38:19.365Z,94753.78
2023-11-25T07:40:45.897Z,94756.34
2023-11-25T07:43:15.686Z,94754.25
2023-11-25T07:45:42.179Z,94754.50
2023-11-25T07:48:09.167Z,94755.97
2023-11-25T07:50:51.068Z,94754.78
2023-11-25T07:53:18.074Z,94747.69
2023-11-25T07:55:44.577Z,94750.13
2023-11-25T07:58:13.248Z,94743.34
2023-11-25T08:00:39.614Z,94745.78
2023-11-25T08:03:07.037Z,94748.13
2023-11-25T08:05:35.170Z,94740.53
2023-11-25T08:08:03.588Z,94747.31
2023-11-25T08:10:34.595Z,94747.50
2023-11-25T08:13:01.337Z,94745.66
2023-11-25T08:15:28.024Z,94744.28
2023-11-25T08:17:55.237Z,94747.75
2023-11-25T08:20:21.673Z,94748.94
2023-11-25T08:22:48.521Z,94757.53
2023-11-25T08:25:15.811Z,94768.44
2023-11-25T08:27:42.662Z,94760.44
2023-11-25T08:30:09.700Z,94770.47
2023-11-25T08:32:39.048Z,94767.72
2023-11-25T08:35:06.799Z,94775.59
2023-11-25T08:37:33.334Z,94781.31
2023-11-25T08:39:59.698Z,94774.19
2023-11-25T08:42:29.341Z,94772.94
2023-11-25T08:44:56.223Z,94777.25
2023-11-25T08:47:22.632Z,94787.44
2023-11-25T08:49:49.566Z,94785.59
2023-11-25T08:52:16.135Z,94788.00
2023-11-25T08:54:42.485Z,94781.25
2023-11-25T08:57:09.139Z,94786.41
2023-11-25T08:59:36.496Z,94787.63
2023-11-25T09:02:05.729Z,94804.63
2023-11-25T09:04:35.926Z,94793.28
2023-11-25T09:07:02.612Z,94796.84
2023-11-25T09:09:28.993Z,94794.38
2023-11-25T09:11:57.940Z,94798.50
2023-11-25T09:14:24.301Z,94791.88
2023-11-25T09:16:51.399Z,94800.69
2023-11-25T09:19:18.218Z,94808.47
2023-11-25T09:21:45.268Z,94806.38
2023-11-25T09:24:12.100Z,94810.53
2023-11-25T09:26:38.466Z,94818.53
2023-11-25T09:29:05.945Z,94815.53
2023-11-25T09:31:32.891Z,94822.66
2023-11-25T09:34:03.110Z,94832.16
2023-11-25T09:36:30.242Z,94831.91
2023-11-25T09:38:56.709Z,94820.06
2023-11-25T09:41:23.443Z,94831.72
2023-11-25T09:43:50.048Z,94821.22
2023-11-25T09:46:17.468Z,94836.00
2023-11-25T09:48:44.027Z,94828.81
2023-11-25T09:51:13.949Z,94830.50
2023-11-25T09:53:43.626Z,94831.44
2023-11-25T09:56:11.944Z,94826.78
2023-11-25T09:58:38.426Z,94818.59
2023-11-25T10:01:06.345Z,94824.34
2023-11-25T10:03:37.800Z,94829.69
2023-11-25T10:06:04.379Z,94830.19
2023-11-25T10:08:33.147Z,94836.44
2023-11-25T10:11:02.151Z,94826.88
2023-11-25T10:13:32.811Z,94831.81
2023-11-25T10:15:59.958Z,94837.16
2023-11-25T10:18:26.328Z,94832.28
2023-11-25T10:20:57.836Z,94828.31
2023-11-25T10:23:24.717Z,94822.72
2023-11-25T10:25:52.610Z,94831.88
2023-11-25T10:28:21.905Z,94832.94
2023-11-25T10:30:55.653Z,94832.25
2023-11-25T10:33:22.657Z,94827.97
2023-11-25T10:35:49.594Z,94821.28
2023-11-25T10:38:16.583Z,94823.25
2023-11-25T10:40:43.186Z,94820.47
2023-11-25T10:43:10.288Z,94815.66
2023-11-25T10:45:36.810Z,94814.63
2023-11-25T10:48:04.652Z,94823.66
2023-11-25T10:50:31.844Z,94808.13
2023-11-25T10:53:01.204Z,94822.41
2023-11-25T10:55:28.755Z,94814.16
2023-11-25T10:57:57.923Z,94819.00
2023-11-25T11:00:28.880Z,94830.94
2023-11-25T11:02:58.482Z,94820.50
2023-11-25T11:05:32.868Z,94813.34
2023-11-25T11:08:03.805Z,94813.09
2023-11-25T11:10:37.000Z,94823.91
2023-11-25T11:13:04.616Z,94818.47
2023-11-25T11:15:36.353Z,94814.84
2023-11-25T11:18:13.731Z,94811.16
2023-11-25T11:20:46.874Z,94804.47
2023-11-25T11:23:14.851Z,94809.00
2023-11-25T11:25:47.287Z,94797.53
2023-11-25T11:28:23.313Z,94801.00
2023-11-25T11:31:17.171Z,94789.84
2023-11-25T11:33:43.743Z,94794.91
2023-11-25T11:36:20.259Z,94796.69
2023-11-25T11:38:46.800Z,94803.78
2023-11-25T11:41:27.911Z,94791.78
2023-11-25T11:44:04.618Z,94785.22
2023-11-25T11:46:33.428Z,94782.09
2023-11-25T11:49:00.905Z,94781.25
2023-11-25T11:51:29.365Z,94775.41
2023-11-25T11:54:24.323Z,94774.72
2023-11-25T11:57:03.971Z,94779.44
2023-11-25T12:00:06.769Z,94783.56
2023-11-25T12:02:37.796Z,94776.38
2023-11-25T12:05:05.225Z,94784.91
2023-11-25T12:07:32.483Z,94789.44
2023-11-25T12:09:58.950Z,94777.84
2023-11-25T12:12:25.574Z,94773.69
2023-11-25T12:14:53.684Z,94786.66
2023-11-25T12:17:21.931Z,94774.28
2023-11-25T12:19:52.324Z,94770.38
2023-11-25T12:22:22.380Z,94754.03
2023-11-25T12:24:48.826Z,94750.78
2023-11-25T12:27:18.255Z,94741.94
2023-11-25T12:29:44.740Z,94731.31
2023-11-25T12:32:12.249Z,94738.69
2023-11-25T12:34:38.681Z,94731.78
2023-11-25T12:37:05.879Z,94724.69
2023-11-25T12:39:32.270Z,94720.47
2023-11-25T12:42:02.098Z,94710.69
2023-11-25T12:44:30.179Z,94719.03
2023-11-25T12:47:01.866Z,94709.88
2023-11-25T12:49:29.880Z,94705.81
2023-11-25T12:51:56.886Z,94708.31
2023-11-25T12:54:24.431Z,94728.91
2023-11-25T12:56:52.574Z,94723.78
2023-11-25T12:59:23.253Z,94717.00
2023-11-25T13:01:50.237Z,94721.09
2023-11-25T13:04:18.029Z,94719.03
2023-11-25T13:06:48.348Z,94711.69
2023-11-25T13:09:15.494Z,94710.28
2023-11-25T13:11:42.605Z,94723.91
2023-11-25T13:14:09.066Z,94720.06
2023-11-25T13:16:35.876Z,94702.91
2023-11-25T13:19:03.171Z,94708.75
2023-11-25T13:21:29.585Z,94698.81
2023-11-25T13:23:56.062Z,94703.34
2023-11-25T13:26:22.595Z,94709.25
2023-11-25T13:28:49.683Z,94694.25
2023-11-25T13:31:16.200Z,94695.56
2023-11-25T13:33:42.541Z,94685.38
2023-11-25T13:36:09.142Z,94679.22
2023-11-25T13:38:35.485Z,94686.44
2023-11-25T13:41:02.157Z,94668.25
2023-11-25T13:43:28.788Z,94665.41
2023-11-25T13:45:57.074Z,94656.88
2023-11-25T13:48:23.461Z,94661.09
2023-11-25T13:50:50.509Z,94655.00
2023-11-25T13:53:18.583Z,94648.53
2023-11-25T13:55:47.322Z,94656.25
2023-11-25T13:58:14.310Z,94656.50
2023-11-25T14:00:41.072Z,94651.47
2023-11-25T14:03:10.111Z,94650.66
2023-11-25T14:05:38.362Z,94644.44
2023-11-25T14:08:05.731Z,94655.91
2023-11-25T14:10:32.195Z,94654.56
2023-11-25T14:12:58.902Z,94654.50
2023-11-25T14:15:25.282Z,94650.00
2023-11-25T14:17:51.842Z,94653.25
2023-11-25T14:20:19.474Z,94651.34
2023-11-25T14:22:47.227Z,94650.59
2023-11-25T14:25:14.587Z,94656.44
2023-11-25T14:27:42.187Z,94641.44
2023-11-25T14:30:09.922Z,94651.06
2023-11-25T14:32:36.328Z,94646.47
2023-11-25T14:35:02.953Z,94655.78
2023-11-25T14:37:30.023Z,94657.06
2023-11-25T14:40:00.907Z,94645.25
2023-11-25T14:42:30.405Z,94658.56
2023-11-25T14:44:59.353Z,94660.06
2023-11-25T14:47:26.122Z,94653.28
2023-11-25T14:49:52.725Z,94644.03
2023-11-25T14:52:19.224Z,94652.47
2023-11-25T14:54:46.501Z,94650.56
2023-11-25T14:57:12.849Z,94645.88
2023-11-25T14:59:40.139Z,94650.19
2023-11-25T15:02:07.403Z,94638.13
2023-11-25T15:04:34.224Z,94634.88
2023-11-25T15:07:00.776Z,94645.41
2023-11-25T15:09:27.297Z,94648.00
2023-11-25T15:11:54.645Z,94648.09
2023-11-25T15:14:22.215Z,94655.97
2023-11-25T15:16:48.665Z,94648.72
2023-11-25T15:19:15.030Z,94657.78
2023-11-25T15:21:41.377Z,94645.41
2023-11-25T15:24:08.036Z,94653.50
2023-11-25T15:26:35.600Z,94657.22
2023-11-25T15:29:02.900Z,94663.69
2023-11-25T15:31:29.876Z,94663.69
2023-11-25T15:33:57.702Z,94660.72
2023-11-25T15:36:25.019Z,94673.81
2023-11-25T15:38:51.445Z,94659.88
2023-11-25T15:41:17.862Z,94671.88
2023-11-25T15:43:44.263Z,94672.13
2023-11-25T15:46:11.419Z,94675.28
2023-11-25T15:48:39.018Z,94668.50
2023-11-25T15:51:07.138Z,94665.59
2023-11-25T15:53:33.686Z,94667.94
2023-11-25T15:56:00.643Z,94668.75
2023-11-25T15:58:27.257Z,94667.13
2023-11-25T16:00:55.687Z,94667.13
2023-11-25T16:03:23.868Z,94664.47
2023-11-25T16:05:51.250Z,94665.50
2023-11-25T16:08:17.772Z,94661.31
2023-11-25T16:10:45.046Z,94657.59
2023-11-25T16:13:11.503Z,94655.44
2023-11-25T16:15:38.014Z,94654.47
2023-11-25T16:18:04.621Z,94660.38
2023-11-25T16:20:31.695Z,94657.31
2023-11-25T16:22:58.242Z,94655.91
2023-11-25T16:25:25.433Z,94642.25
2023-11-25T16:27:52.229Z,94640.31
2023-11-25T16:30:22.875Z,94639.50
2023-11-25T16:32:49.748Z,94640.31
2023-11-25T16:35:16.159Z,94636.81
2023-11-25T16:37:43.326Z,94640.06
2023-11-25T16:40:11.036Z,94639.00
2023-11-25T16:42:37.564Z,94645.88
2023-11-25T16:45:06.777Z,94642.41
2023-11-25T16:47:33.527Z,94640.78
2023-11-25T16:50:00.005Z,94637.63
2023-11-25T16:52:26.476Z,94648.06
2023-11-25T16:54:53.507Z,94638.50
2023-11-25T16:57:19.935Z,94645.75
2023-11-25T16:59:46.361Z,94649.00
2023-11-25T17:02:12.991Z,94641.06
2023-11-25T17:04:39.730Z,94639.75
2023-11-25T17:07:09.487Z,94644.03
2023-11-25T17:09:35.875Z,94653.13
2023-11-25T17:12:03.094Z,94643.72
2023-11-25T17:14:29.557Z,94654.97
2023-11-25T17:16:56.038Z,94654.72
2023-11-25T17:19:22.951Z,94665.66
2023-11-25T17:21:49.306Z,94650.31
2023-11-25T17:24:16.259Z,94658.81
2023-11-25T17:26:42.660Z,94655.34
2023-11-25T17:29:09.665Z,94656.97
2023-11-25T17:31:36.114Z,94672.34
2023-11-25T17:34:02.524Z,94665.72
2023-11-25T17:36:28.997Z,94667.00
2023-11-25T17:38:56.293Z,94667.34
2023-11-25T17:41:22.870Z,94670.00
2023-11-25T17:43:49.862Z,94672.13
2023-11-25T17:46:19.472Z,94669.19
2023-11-25T17:48:52.585Z,94668.94
2023-11-25T17:51:25.637Z,94673.50
2023-11-25T17:53:56.326Z,94675.34
2023-11-25T17:56:32.041Z,94668.63
2023-11-25T17:59:04.853Z,94663.28
2023-11-25T18:01:35.165Z,94665.47
2023-11-25T18:04:17.881Z,94656.66
2023-11-25T18:06:53.765Z,94673.50
2023-11-25T18:09:31.978Z,94674.28
2023-11-25T18:11:58.766Z,94666.59
2023-11-25T18:14:25.413Z,94672.19
2023-11-25T18:17:02.958Z,94673.81
2023-11-25T18:19:29.434Z,94668.94
2023-11-25T18:22:11.064Z,94660.94
2023-11-25T18:24:40.692Z,94655.84
2023-11-25T18:27:33.969Z,94657.47
2023-11-25T18:30:00.362Z,94652.91
2023-11-25T18:32:44.135Z,94656.75
2023-11-25T18:35:26.107Z,94667.69
2023-11-25T18:37:56.146Z,94664.75
2023-11-25T18:40:40.147Z,94664.22
2023-11-25T18:43:14.642Z,94673.34
2023-11-25T18:45:41.212Z,94665.34
2023-11-25T18:48:13.331Z,94668.25
2023-11-25T18:50:39.734Z,94673.84
2023-11-25T18:53:08.652Z,94662.66
2023-11-25T18:55:35.448Z,94659.25
2023-11-25T18:58:04.602Z,94669.38
2023-11-25T19:00:31.475Z,94663.81
2023-11-25T19:03:16.072Z,94664.38
2023-11-25T19:05:43.169Z,94661.94
2023-11-25T19:08:09.598Z,94669.63
2023-11-25T19:10:36.264Z,94675.06
2023-11-25T19:13:02.775Z,94669.72
2023-11-25T19:15:29.161Z,94670.56
2023-11-25T19:17:55.654Z,94677.53
2023-11-25T19:20:22.733Z,94679.66
2023-11-25T19:22:49.921Z,94671.38
2023-11-25T19:25:16.641Z,94672.69
2023-11-25T19:27:43.118Z,94668.66
2023-11-25T19:30:09.819Z,94673.44
2023-11-25T19:32:36.350Z,94664.03
2023-11-25T19:35:02.964Z,94665.16
2023-11-25T19:37:31.270Z,94675.06
2023-11-25T19:39:58.346Z,94677.16
2023-11-25T19:42:25.023Z,94671.06
2023-11-25T19:44:51.894Z,94674.31
2023-11-25T19:47:18.548Z,94669.78
2023-11-25T19:49:45.011Z,94679.13
2023-11-25T19:52:11.472Z,94661.00
2023-11-25T19:54:37.873Z,94681.56
2023-11-25T19:57:05.480Z,94676.22
2023-11-25T19:59:32.878Z,94685.34
2023-11-25T20:01:59.419Z,94696.53
2023-11-25T20:04:26.201Z,94695.16
2023-11-25T20:06:58.525Z,94693.06
2023-11-25T20:09:24.873Z,94691.69
2023-11-25T20:11:56.121Z,94694.19
2023-11-25T20:14:23.657Z,94682.69
2023-11-25T20:16:50.075Z,94690.72
2023-11-25T20:19:16.409Z,94697.59
2023-11-25T20:21:42.786Z,94703.25
2023-11-25T20:24:09.815Z,94685.59
2023-11-25T20:26:36.847Z,94690.72
2023-11-25T20:29:03.269Z,94693.38
2023-11-25T20:31:34.353Z,94701.88
2023-11-25T20:34:01.384Z,94710.41
2023-11-25T20:36:27.714Z,94715.25
2023-11-25T20:38:54.375Z,94709.88
2023-11-25T20:41:20.757Z,94703.72
2023-11-25T20:43:47.242Z,94705.28
2023-11-25T20:46:14.544Z,94704.25
2023-11-25T20:48:41.935Z,94701.56
2023-11-25T20:51:09.950Z,94700.84
2023-11-25T20:53:38.621Z,94685.13
2023-11-25T20:56:06.429Z,94698.78
2023-11-25T20:58:34.080Z,94698.00
2023-11-25T21:01:02.732Z,94699.59
2023-11-25T21:03:29.246Z,94702.59
2023-11-25T21:05:56.399Z,94708.94
2023-11-25T21:08:22.830Z,94708.44
2023-11-25T21:10:49.210Z,94707.63
2023-11-25T21:13:15.655Z,94704.63
2023-11-25T21:15:42.287Z,94710.06
2023-11-25T21:18:08.689Z,94702.28
2023-11-25T21:20:35.185Z,94699.59
2023-11-25T21:23:02.235Z,94696.69
2023-11-25T21:25:28.636Z,94715.41
2023-11-25T21:27:56.906Z,94720.34
2023-11-25T21:30:23.371Z,94724.66
2023-11-25T21:32:50.142Z,94731.84
2023-11-25T21:35:16.984Z,94730.72
2023-11-25T21:37:43.562Z,94729.91
2023-11-25T21:40:20.365Z,94725.13
2023-11-25T21:42:50.042Z,94724.09
2023-11-25T21:45:16.437Z,94733.97
2023-11-25T21:47:42.816Z,94725.69
2023-11-25T21:50:10.179Z,94731.59
2023-11-25T21:52:37.833Z,94732.41
2023-11-25T21:55:05.116Z,94729.44
2023-11-25T21:57:32.133Z,94730.72
2023-11-25T21:59:58.547Z,94728.63
2023-11-25T22:02:26.049Z,94737.13
2023-11-25T22:04:52.765Z,94741.94
2023-11-25T22:07:25.780Z,94744.59
2023-11-25T22:09:52.180Z,94735.78
2023-11-25T22:12:18.543Z,94744.28
2023-11-25T22:14:48.158Z,94739.44
2023-11-25T22:17:14.518Z,94741.13
2023-11-25T22:19:40.997Z,94743.22
2023-11-25T22:22:08.015Z,94738.44
2023-11-25T22:24:34.419Z,94737.88
2023-11-25T22:27:10.640Z,94748.81
2023-11-25T22:29:36.964Z,94746.97
2023-11-25T22:32:05.674Z,94758.38
2023-11-25T22:34:32.200Z,94758.63
2023-11-25T22:36:58.763Z,94753.53
2023-11-25T22:39:25.176Z,94766.25
2023-11-25T22:41:51.613Z,94769.19
2023-11-25T22:44:18.333Z,94769.47
2023-11-25T22:46:47.932Z,94771.84
2023-11-25T22:49:15.042Z,94764.13
2023-11-25T22:51:41.406Z,94759.59
2023-11-25T22:54:08.314Z,94754.16
2023-11-25T22:56:34.659Z,94766.16
2023-11-25T22:59:01.048Z,94765.34
2023-11-25T23:01:27.751Z,94761.06
2023-11-25T23:03:55.440Z,94771.34
2023-11-25T23:06:23.746Z,94776.50
2023-11-25T23:08:51.362Z,94778.81
2023-11-25T23:11:18.496Z,94775.91
2023-11-25T23:13:45.102Z,94775.47
2023-11-25T23:16:11.568Z,94775.47
2023-11-25T23:18:38.587Z,94781.06
2023-11-25T23:21:05.320Z,94784.88
2023-11-25T23:23:40.612Z,94785.38
2023-11-25T23:26:12.556Z,94787.69
2023-11-25T23:28:38.971Z,94781.16
2023-11-25T23:31:05.553Z,94788.69
2023-11-25T23:33:32.058Z,94795.22
2023-11-25T23:35:58.392Z,94801.38
2023-11-25T23:38:24.801Z,94795.91
2023-11-25T23:40:52.314Z,94805.28
2023-11-25T23:43:19.243Z,94801.97
2023-11-25T23:45:46.065Z,94808.19
2023-11-25T23:48:12.711Z,94808.13
2023-11-25T23:50:39.221Z,94803.16
2023-11-25T23:53:05.707Z,94803.97
2023-11-25T23:55:32.233Z,94805.75
2023-11-25T23:57:59.375Z,94796.13
